Time;durP1;ratioP1;P1;durP2;ratioP2;P2;SDS_P1;SDS_P2;PMS_P1;PMS_P2;Temp;Humidity;BMP_temperature;BMP_pressure;BME280_temperature;BME280_humidity;BME280_pressure;Samples;Min_cycle;Max_cycle;Signal;HPM_P1;HPM_P2
2022/05/14 00:01:20;;;;;;;1.87;1.67;;;17.10;58.10;;;-142.21;93.21;112049.66;5057978;28;20452;-80
2022/05/14 00:03:48;;;;;;;2.60;1.70;;;17.20;58.00;;;-142.21;92.88;112049.66;5058182;28;20502;-80
2022/05/14 00:06:19;;;;;;;3.00;1.97;;;17.20;57.70;;;-142.21;94.08;112049.66;5056584;28;20448;-80
2022/05/14 00:08:48;;;;;;;2.17;1.73;;;17.10;58.10;;;-142.21;94.64;112049.66;5057956;28;21076;-80
2022/05/14 00:14:04;;;;;;;4.60;1.70;;;17.00;58.30;;;-142.21;97.00;112049.66;5056698;28;20431;-80
2022/05/14 00:16:34;;;;;;;3.93;2.00;;;16.90;58.60;;;-142.21;96.49;112049.66;5057620;28;20442;-80
2022/05/14 00:19:03;;;;;;;1.97;1.80;;;16.80;59.00;;;-142.21;95.29;112049.66;5056979;28;20992;-80
2022/05/14 00:21:32;;;;;;;4.10;2.10;;;16.80;59.00;;;-142.21;95.88;112049.66;5057272;28;20440;-80
2022/05/14 00:23:59;;;;;;;2.63;2.00;;;16.80;59.00;;;-142.21;96.24;112049.66;5057389;28;20786;-80
2022/05/14 00:26:28;;;;;;;2.90;1.50;;;16.70;59.90;;;-142.21;97.51;112049.66;5057604;28;20526;-80
2022/05/14 00:28:55;;;;;;;3.07;2.20;;;16.70;60.00;;;-142.21;96.29;112049.66;5057664;28;20488;-80
2022/05/14 00:31:23;;;;;;;2.10;1.80;;;16.60;59.00;;;-142.21;94.73;112049.66;5058065;28;20441;-80
2022/05/14 00:33:51;;;;;;;2.00;1.80;;;16.70;58.90;;;-142.21;95.59;112049.66;5057101;28;20535;-79
2022/05/14 00:36:18;;;;;;;2.57;2.00;;;16.70;58.90;;;-142.21;96.51;112049.66;5057607;28;20689;-80
2022/05/14 00:38:45;;;;;;;3.40;2.00;;;16.70;58.80;;;-142.21;95.42;112049.66;5058123;28;20487;-79
2022/05/14 00:41:12;;;;;;;2.43;1.80;;;16.70;58.80;;;-142.21;95.93;112049.66;5057224;28;20479;-80
2022/05/14 00:43:53;;;;;;;3.50;1.83;;;16.70;58.80;;;-142.21;96.41;112049.66;5057884;28;20451;-80
2022/05/14 00:46:26;;;;;;;5.00;1.80;;;16.70;59.20;;;-142.21;96.87;112049.66;5057930;28;20503;-80
2022/05/14 00:48:57;;;;;;;3.23;1.63;;;16.70;58.90;;;-142.21;97.72;112049.66;5055318;28;20494;-80
2022/05/14 00:51:29;;;;;;;2.40;1.93;;;16.70;59.00;;;-142.21;97.53;112049.66;5057418;28;20454;-80
2022/05/14 00:54:02;;;;;;;2.50;1.80;;;16.60;59.10;;;-142.21;98.16;112049.66;5057436;28;20861;-80
2022/05/14 00:56:36;;;;;;;2.30;1.60;;;16.50;59.40;;;-142.21;98.32;112049.66;5057355;28;20436;-80
2022/05/14 00:59:09;;;;;;;3.53;1.90;;;16.40;59.80;;;-142.21;98.96;112049.66;5057454;28;20440;-80
2022/05/14 01:01:38;;;;;;;4.23;2.00;;;16.40;60.00;;;-142.21;98.08;112049.66;5057686;28;20936;-79
2022/05/14 01:04:08;;;;;;;4.67;2.03;;;16.40;59.90;;;-142.21;97.79;112049.66;5057218;28;20874;-80
2022/05/14 01:06:37;;;;;;;2.17;1.73;;;16.40;59.60;;;-142.21;99.12;112049.66;5057632;28;20487;-79
2022/05/14 01:09:06;;;;;;;4.60;1.90;;;16.40;59.70;;;-142.21;99.76;112049.66;5056803;28;20562;-80
2022/05/14 01:11:37;;;;;;;2.30;1.93;;;16.40;59.90;;;-142.21;97.89;112049.66;5054948;28;20972;-80
2022/05/14 01:14:06;;;;;;;2.80;2.03;;;16.40;60.40;;;-142.21;99.72;112049.66;5053420;28;20445;-80
2022/05/14 01:16:33;;;;;;;3.43;1.70;;;16.30;60.30;;;-142.21;97.20;112049.66;5054320;28;20444;-79
2022/05/14 01:19:01;;;;;;;2.33;2.03;;;16.30;59.60;;;-142.21;96.22;112049.66;5053243;28;20551;-79
2022/05/14 01:21:41;;;;;;;1.93;1.67;;;16.30;59.50;;;-142.21;96.88;112049.66;5054026;28;20531;-80
2022/05/14 01:27:05;;;;;;;3.43;1.67;;;16.20;59.40;;;-142.21;96.92;112049.66;5053258;28;20940;-80
2022/05/14 01:29:33;;;;;;;2.50;1.67;;;16.20;59.40;;;-142.21;98.86;112049.66;5035741;28;20508;-80
2022/05/14 01:32:00;;;;;;;3.47;1.80;;;16.20;59.80;;;-142.21;98.11;112049.66;5053485;28;20455;-81
2022/05/14 01:34:33;;;;;;;2.20;1.80;;;16.10;59.60;;;-142.21;97.94;112049.66;5053833;28;20459;-80
2022/05/14 01:37:00;;;;;;;2.77;1.60;;;16.10;59.70;;;-142.21;98.42;112049.66;5053925;28;20502;-80
2022/05/14 01:39:29;;;;;;;2.23;1.80;;;16.10;59.80;;;-142.21;98.67;112049.66;5053645;28;20440;-79
2022/05/14 01:41:57;;;;;;;2.33;1.97;;;16.00;60.10;;;-142.21;98.92;112049.66;5053747;28;20548;-80
2022/05/14 01:44:25;;;;;;;2.17;1.97;;;16.10;59.90;;;-142.21;97.45;112049.66;5053755;28;20450;-79
2022/05/14 01:46:53;;;;;;;2.43;1.77;;;16.10;59.60;;;-142.21;98.21;112049.66;5053944;28;20476;-80
2022/05/14 01:49:20;;;;;;;1.93;1.80;;;16.00;59.60;;;-142.21;99.02;112049.66;5053638;28;20538;-80
2022/05/14 01:51:48;;;;;;;2.27;1.73;;;16.00;59.80;;;-142.21;99.05;112049.66;5053945;28;20452;-79
2022/05/14 01:54:15;;;;;;;3.20;1.80;;;16.00;59.90;;;-142.21;99.62;112049.66;5053088;28;20488;-80
2022/05/14 01:56:43;;;;;;;2.33;1.63;;;15.90;60.30;;;-142.21;100.00;112049.66;5053766;28;20480;-80
2022/05/14 01:59:10;;;;;;;3.27;1.60;;;15.80;61.10;;;-142.21;99.54;112049.66;5053112;28;20855;-80
2022/05/14 02:01:39;;;;;;;3.40;2.00;;;15.70;61.00;;;-142.21;99.14;112049.66;5053117;28;20578;-80
2022/05/14 02:04:11;;;;;;;2.83;1.73;;;15.70;60.80;;;-142.21;98.74;112049.66;5052466;28;20455;-80
2022/05/14 02:06:39;;;;;;;2.97;1.50;;;15.70;61.00;;;-142.21;100.00;112049.66;5053629;28;20490;-80
2022/05/14 02:09:10;;;;;;;3.00;1.93;;;15.60;61.90;;;-142.21;99.69;112049.66;5052422;28;20654;-79
2022/05/14 02:11:39;;;;;;;3.40;1.93;;;15.60;61.40;;;-142.21;99.64;112049.66;5051026;28;20506;-80
2022/05/14 02:14:07;;;;;;;4.20;2.00;;;15.50;61.40;;;-142.21;100.00;112049.66;5052924;28;20539;-79
2022/05/14 02:16:34;;;;;;;2.87;1.93;;;15.60;61.50;;;-142.21;99.92;112049.66;5052864;28;20803;-79
2022/05/14 02:19:04;;;;;;;2.13;1.77;;;15.50;62.30;;;-142.21;100.00;112049.66;5052896;28;20556;-80
2022/05/14 02:21:32;;;;;;;2.73;1.80;;;15.50;62.30;;;-142.21;100.00;112049.66;5052749;28;20458;-80
2022/05/14 02:24:00;;;;;;;2.90;1.60;;;15.40;62.20;;;-142.21;100.00;112049.66;5052049;28;21044;-80
2022/05/14 02:26:28;;;;;;;2.27;1.77;;;15.40;61.40;;;-142.21;100.00;112049.66;5053200;28;20444;-79
2022/05/14 02:28:56;;;;;;;3.87;1.90;;;15.50;61.60;;;-142.21;100.00;112049.66;5053394;28;20487;-80
2022/05/14 02:31:23;;;;;;;2.43;2.00;;;15.50;61.30;;;-142.21;100.00;112049.66;5052382;28;20540;-80
2022/05/14 02:33:50;;;;;;;2.40;1.90;;;15.50;61.20;;;-142.21;100.00;112049.66;5052928;28;20483;-80
2022/05/14 02:36:19;;;;;;;3.47;1.60;;;15.40;61.00;;;-142.21;100.00;112049.66;5052259;28;20448;-80
2022/05/14 02:38:47;;;;;;;2.43;1.60;;;15.40;61.10;;;-142.21;100.00;112049.66;5053056;28;20791;-80
2022/05/14 02:41:14;;;;;;;3.47;1.60;;;15.40;61.40;;;-142.21;100.00;112049.66;5052379;28;20444;-80
2022/05/14 02:43:41;;;;;;;3.10;1.80;;;15.30;61.30;;;-142.21;100.00;112049.66;5053012;28;20476;-79
2022/05/14 02:46:09;;;;;;;3.23;1.63;;;15.40;61.20;;;-142.21;100.00;112049.66;5051407;28;20512;-79
2022/05/14 02:48:37;;;;;;;2.47;2.00;;;15.40;61.10;;;-142.21;100.00;112049.66;5052875;28;20528;-79
2022/05/14 02:51:05;;;;;;;2.17;1.80;;;15.40;61.00;;;-142.21;99.85;112049.66;5051881;28;20487;-79
2022/05/14 02:53:34;;;;;;;4.33;1.80;;;15.40;61.00;;;-142.21;100.00;112049.66;5054029;28;20913;-77
2022/05/14 02:56:01;;;;;;;3.73;1.80;;;15.30;61.10;;;-142.21;99.96;112049.66;5058500;28;20448;-78
2022/05/14 03:01:13;;;;;;;3.10;2.17;;;15.10;62.40;;;-142.21;100.00;112049.66;5051639;28;20538;-80
2022/05/14 03:03:40;;;;;;;2.77;1.87;;;15.00;63.40;;;-142.21;100.00;112049.66;5052534;28;20477;-79
2022/05/14 03:06:08;;;;;;;2.47;1.87;;;15.00;64.20;;;-142.21;100.00;112049.66;5052041;28;20499;-80
2022/05/14 03:08:37;;;;;;;3.13;1.97;;;15.00;63.40;;;-142.21;100.00;112049.66;5052102;28;20456;-79
2022/05/14 03:11:04;;;;;;;1.90;1.80;;;15.00;64.50;;;-142.21;100.00;112049.66;5051798;28;20836;-80
2022/05/14 03:13:32;;;;;;;2.00;1.70;;;15.00;63.80;;;-142.21;100.00;112049.66;5046975;28;20502;-80
2022/05/14 03:15:59;;;;;;;2.13;1.93;;;15.00;63.50;;;-142.21;100.00;112049.66;5051167;28;20459;-80
2022/05/14 03:18:26;;;;;;;1.90;1.70;;;14.90;63.50;;;-142.21;100.00;112049.66;5051939;28;20476;-80
2022/05/14 03:20:53;;;;;;;4.17;1.83;;;14.90;63.80;;;-142.21;100.00;112049.66;5052395;28;20494;-80
2022/05/14 03:23:21;;;;;;;1.80;1.70;;;14.80;63.90;;;-142.21;100.00;112049.66;5051678;28;20490;-79
2022/05/14 03:25:50;;;;;;;2.60;1.70;;;14.80;63.20;;;-142.21;100.00;112049.66;5051543;28;20527;-80
2022/05/14 03:28:17;;;;;;;1.90;1.57;;;14.80;63.10;;;-142.21;100.00;112049.66;5051044;28;20554;-79
2022/05/14 03:30:45;;;;;;;3.00;2.37;;;14.70;63.00;;;-142.21;100.00;112049.66;5029995;28;20489;-79
2022/05/14 03:33:12;;;;;;;2.30;1.80;;;14.70;62.30;;;-142.21;100.00;112049.66;5048189;28;20482;-80
2022/05/14 03:35:39;;;;;;;2.10;1.90;;;14.80;61.70;;;-142.21;100.00;112049.66;5051673;28;20452;-79
2022/05/14 03:38:07;;;;;;;2.03;1.60;;;14.90;62.10;;;-142.21;100.00;112049.66;5051530;28;20479;-80
2022/05/14 03:40:34;;;;;;;3.30;1.83;;;14.80;63.20;;;-142.21;100.00;112049.66;5051710;28;20936;-80
2022/05/14 03:43:03;;;;;;;3.00;1.90;;;14.80;62.80;;;-142.21;100.00;112049.66;5051013;28;20449;-80
2022/05/14 03:45:30;;;;;;;1.83;1.67;;;14.80;63.00;;;-142.21;100.00;112049.66;5051627;28;20570;-80
2022/05/14 03:47:58;;;;;;;1.63;1.53;;;14.70;63.70;;;-142.21;100.00;112049.66;5051794;28;20460;-80
2022/05/14 03:50:25;;;;;;;2.33;1.70;;;14.80;63.20;;;-142.21;100.00;112049.66;5050150;28;20483;-80
2022/05/14 03:52:52;;;;;;;3.60;1.63;;;14.80;64.30;;;-142.21;100.00;112049.66;5051754;28;20483;-80
2022/05/14 03:55:19;;;;;;;1.90;1.80;;;14.80;62.70;;;-142.21;100.00;112049.66;5051098;28;20536;-80
2022/05/14 03:57:46;;;;;;;3.60;1.77;;;14.70;62.90;;;-142.21;100.00;112049.66;5051279;28;20842;-80
2022/05/14 04:00:17;;;;;;;2.43;1.90;;;14.70;62.50;;;-142.21;100.00;112049.66;5051177;28;20444;-80
2022/05/14 04:02:44;;;;;;;2.63;1.90;;;14.70;62.20;;;-142.21;100.00;112049.66;5045508;28;20521;-80
2022/05/14 04:05:11;;;;;;;2.57;1.80;;;14.70;62.20;;;-142.21;100.00;112049.66;5048788;28;20460;-80
2022/05/14 04:07:39;;;;;;;2.00;1.90;;;14.70;62.20;;;-142.21;100.00;112049.66;5051649;28;20488;-80
2022/05/14 04:10:09;;;;;;;2.63;2.00;;;14.70;61.90;;;-142.21;100.00;112049.66;5051070;28;20506;-80
2022/05/14 04:12:36;;;;;;;3.37;1.90;;;14.80;62.30;;;-142.21;100.00;112049.66;5051531;28;20555;-80
2022/05/14 04:15:05;;;;;;;7.83;2.27;;;14.70;62.40;;;-142.21;100.00;112049.66;5050840;28;20441;-80
2022/05/14 04:17:33;;;;;;;10.70;2.50;;;14.70;63.10;;;-142.21;100.00;112049.66;5050315;28;20448;-80
2022/05/14 04:20:01;;;;;;;7.03;2.10;;;14.70;63.80;;;-142.21;100.00;112049.66;5051033;28;20464;-80
2022/05/14 04:22:29;;;;;;;7.70;1.90;;;14.60;64.20;;;-142.21;100.00;112049.66;5051534;28;20437;-80
2022/05/14 04:24:56;;;;;;;4.27;1.70;;;14.70;64.70;;;-142.21;100.00;112049.66;5051353;28;20448;-80
2022/05/14 04:27:23;;;;;;;3.40;1.90;;;14.70;65.30;;;-142.21;100.00;112049.66;5050440;28;20466;-80
2022/05/14 04:29:52;;;;;;;6.70;2.77;;;14.70;64.30;;;-142.21;100.00;112049.66;5051021;28;20479;-80
2022/05/14 04:32:21;;;;;;;3.63;2.20;;;14.70;63.80;;;-142.21;100.00;112049.66;5050717;28;20495;-80
2022/05/14 04:34:50;;;;;;;2.57;2.00;;;14.80;63.70;;;-142.21;100.00;112049.66;5051448;28;20531;-79
2022/05/14 04:37:17;;;;;;;2.83;2.03;;;14.80;64.10;;;-142.21;100.00;112049.66;5050927;28;20484;-79
2022/05/14 04:39:44;;;;;;;7.97;3.60;;;14.80;64.10;;;-142.21;100.00;112049.66;5051279;28;20476;-81
2022/05/14 04:42:11;;;;;;;9.63;2.60;;;14.80;63.90;;;-142.21;100.00;112049.66;5050369;28;20452;-80
2022/05/14 04:44:40;;;;;;;4.13;2.73;;;14.90;63.50;;;-142.21;100.00;112049.66;5051200;28;20468;-80
2022/05/14 04:47:07;;;;;;;3.63;2.00;;;14.90;63.70;;;-142.21;100.00;112049.66;5054270;28;20471;-81
2022/05/14 04:49:40;;;;;;;2.53;2.37;;;14.90;63.60;;;-142.21;100.00;112049.66;5055280;28;20575;-80
2022/05/14 04:52:09;;;;;;;2.33;1.70;;;14.90;64.90;;;-142.21;100.00;112049.66;5054547;28;20765;-80
2022/05/14 04:54:37;;;;;;;2.30;2.03;;;14.90;64.70;;;-142.21;100.00;112049.66;5054963;28;20530;-80
2022/05/14 04:57:06;;;;;;;2.23;2.03;;;14.90;65.10;;;-142.21;100.00;112049.66;5053968;28;20577;-79
2022/05/14 04:59:36;;;;;;;2.07;1.53;;;15.00;64.70;;;-142.21;100.00;112049.66;5055094;28;20440;-80
2022/05/14 05:04:50;;;;;;;1.97;1.87;;;15.20;63.80;;;-142.21;100.00;112049.66;5054832;28;21184;-80
2022/05/14 05:07:19;;;;;;;2.30;2.03;;;15.20;63.70;;;-142.21;100.00;112049.66;5054308;28;20871;-79
2022/05/14 05:09:46;;;;;;;3.73;2.20;;;15.30;63.40;;;-142.21;100.00;112049.66;5069507;28;20562;-79
2022/05/14 05:12:14;;;;;;;1.83;1.73;;;15.40;63.50;;;-142.21;100.00;112049.66;5053650;28;20480;-79
2022/05/14 05:14:41;;;;;;;5.53;1.80;;;15.50;63.80;;;-142.21;100.00;112049.66;5054955;28;20440;-80
2022/05/14 05:17:09;;;;;;;1.87;1.73;;;15.50;63.30;;;-142.21;100.00;112049.66;5053854;28;20463;-80
2022/05/14 05:19:36;;;;;;;2.90;1.90;;;15.60;63.70;;;-142.21;100.00;112049.66;5054332;28;20465;-80
2022/05/14 05:22:04;;;;;;;2.10;1.90;;;15.70;64.20;;;-142.21;100.00;112049.66;5054162;28;20448;-80
2022/05/14 05:24:33;;;;;;;2.17;1.97;;;15.70;64.70;;;-142.21;100.00;112049.66;5053792;28;20960;-80
2022/05/14 05:27:01;;;;;;;4.57;2.07;;;15.80;64.30;;;-142.21;100.00;112049.66;5054525;28;20514;-79
2022/05/14 05:29:28;;;;;;;2.00;1.80;;;15.90;64.50;;;-142.21;100.00;112049.66;5053999;28;20571;-81
2022/05/14 05:31:55;;;;;;;3.43;1.80;;;16.00;64.00;;;-142.21;100.00;112049.66;5054202;28;20456;-80
2022/05/14 05:34:22;;;;;;;2.37;1.77;;;16.10;64.40;;;-142.21;100.00;112049.66;5053679;28;20472;-80
2022/05/14 05:36:49;;;;;;;3.60;1.70;;;16.30;64.30;;;-142.21;99.42;112049.66;5054283;28;20448;-80
2022/05/14 05:39:17;;;;;;;4.33;2.30;;;16.40;61.30;;;-142.21;100.00;112049.66;5052932;28;20491;-80
2022/05/14 05:41:46;;;;;;;2.70;1.87;;;16.50;63.00;;;-142.21;100.00;112049.66;5053881;28;20979;-80
2022/05/14 05:44:13;;;;;;;2.90;1.83;;;16.60;61.80;;;-142.21;100.00;112049.66;5053627;28;20436;-80
2022/05/14 05:46:40;;;;;;;1.43;1.30;;;16.80;61.40;;;-142.21;99.64;112049.66;5053555;28;20523;-80
2022/05/14 05:49:07;;;;;;;2.73;2.00;;;16.90;60.60;;;-142.21;100.00;112049.66;5053405;28;20532;-80
2022/05/14 05:51:35;;;;;;;2.77;1.90;;;17.10;61.30;;;-142.21;97.62;112049.66;5054215;28;20542;-80
2022/05/14 05:56:51;;;;;;;2.20;1.97;;;17.20;60.20;;;-142.21;98.91;112049.66;5053001;28;20948;-80
2022/05/14 05:59:21;;;;;;;6.63;1.90;;;17.30;60.30;;;-142.21;95.96;112049.66;5054284;28;20441;-80
2022/05/14 06:01:48;;;;;;;1.83;1.63;;;17.40;59.50;;;-142.21;96.21;112049.66;5053079;28;20444;-80
2022/05/14 06:04:15;;;;;;;2.07;1.87;;;17.50;59.40;;;-142.21;99.29;112049.66;5055919;28;20452;-80
2022/05/14 06:06:43;;;;;;;1.80;1.70;;;17.50;59.60;;;-142.21;100.00;112049.66;5055762;28;20452;-80
2022/05/14 06:09:13;;;;;;;3.53;1.80;;;17.60;62.00;;;-142.21;97.40;112049.66;5056032;28;20491;-80
2022/05/14 06:11:42;;;;;;;1.80;1.70;;;17.70;60.60;;;-142.21;94.87;112049.66;5054408;28;20528;-80
2022/05/14 06:14:12;;;;;;;1.70;1.40;;;17.80;58.70;;;-142.21;100.00;112049.66;5052768;28;20453;-80
2022/05/14 06:16:39;;;;;;;2.70;1.57;;;17.90;60.10;;;-142.21;94.05;112049.66;5053320;28;20535;-80
2022/05/14 06:19:08;;;;;;;1.50;1.40;;;18.00;58.60;;;-142.21;95.25;112049.66;5053446;28;20470;-80
2022/05/14 06:21:36;;;;;;;3.53;2.00;;;18.00;59.30;;;-142.21;100.00;112049.66;5053298;28;20506;-80
2022/05/14 06:24:04;;;;;;;4.40;1.90;;;18.20;61.60;;;-142.21;100.00;112049.66;5052846;28;20440;-80
2022/05/14 06:26:31;;;;;;;3.07;1.60;;;18.30;60.50;;;-142.21;94.47;112049.66;5052117;28;20486;-80
2022/05/14 06:28:59;;;;;;;1.27;1.20;;;18.40;59.20;;;-142.21;94.06;112049.66;5052965;28;20543;-81
2022/05/14 06:31:28;;;;;;;1.63;1.40;;;18.50;58.00;;;-142.21;89.29;112049.66;5052374;28;20514;-81
2022/05/14 06:33:55;;;;;;;2.07;1.47;;;18.60;57.10;;;-142.21;94.94;112049.66;5053012;28;20536;-81
2022/05/14 06:36:22;;;;;;;1.37;1.20;;;18.70;58.70;;;-142.21;86.27;112049.66;5052178;28;20447;-80
2022/05/14 06:38:49;;;;;;;2.57;1.50;;;18.90;56.50;;;-142.21;85.38;112049.66;5052220;28;20479;-81
2022/05/14 06:41:17;;;;;;;4.63;1.70;;;19.20;56.30;;;-142.21;80.23;112049.66;5052668;28;20532;-81
2022/05/14 06:43:44;;;;;;;2.53;1.30;;;22.30;52.30;;;-142.21;84.83;112049.66;5052689;28;20933;-79
2022/05/14 06:46:12;;;;;;;1.83;1.30;;;27.00;45.80;;;-142.21;79.43;112049.66;5052169;28;20783;-78
2022/05/14 06:48:41;;;;;;;2.97;1.47;;;30.30;39.90;;;-142.21;70.91;112049.66;5052665;28;20229;-77
2022/05/14 06:51:15;;;;;;;2.53;1.57;;;32.80;35.30;;;-142.21;69.74;112049.66;5052380;28;20271;-79
2022/05/14 06:53:43;;;;;;;2.03;1.13;;;34.70;32.40;;;-142.21;72.46;112049.66;5052958;28;20541;-79
2022/05/14 06:56:14;;;;;;;3.83;1.60;;;36.00;31.10;;;-142.21;67.72;112049.66;5051171;28;20742;-77
2022/05/14 06:58:45;;;;;;;2.47;1.33;;;36.60;30.20;;;-142.21;67.61;112049.66;5052589;28;20208;-78
2022/05/14 07:01:13;;;;;;;2.73;1.60;;;37.10;29.80;;;-142.21;71.24;112049.66;5052231;28;20202;-78
2022/05/14 07:06:39;;;;;;;2.07;1.40;;;36.50;30.10;;;-142.21;64.41;112049.66;5051483;28;20287;-77
2022/05/14 07:09:09;;;;;;;2.07;1.40;;;35.60;31.20;;;-142.21;70.21;112049.66;5052543;28;20228;-81
2022/05/14 07:11:37;;;;;;;2.13;1.37;;;32.60;34.20;;;-142.21;71.86;112049.66;5052099;28;20607;-77
2022/05/14 07:14:05;;;;;;;2.20;1.50;;;30.40;37.00;;;-142.21;71.19;112049.66;5052556;28;20721;-80
2022/05/14 07:16:34;;;;;;;2.90;1.50;;;28.70;39.50;;;-142.21;69.64;112049.66;5050494;28;20203;-79
2022/05/14 07:19:05;;;;;;;2.37;1.50;;;27.60;41.40;;;-142.21;61.25;112049.66;5052785;28;20333;-78
2022/05/14 07:21:36;;;;;;;1.40;1.20;;;26.80;41.40;;;-142.21;55.37;112049.66;5042801;28;20217;-81
2022/05/14 07:24:05;;;;;;;2.20;1.57;;;26.80;40.70;;;-142.21;59.48;112049.66;5052182;28;20193;-77
2022/05/14 07:26:35;;;;;;;3.43;1.33;;;27.50;39.70;;;-142.21;54.42;112049.66;5040276;28;20207;-80
2022/05/14 07:29:04;;;;;;;2.47;1.40;;;27.70;38.90;;;-142.21;59.35;112049.66;5032545;28;20202;-79
2022/05/14 07:31:31;;;;;;;1.67;1.57;;;26.50;40.90;;;-142.21;62.53;112049.66;5044344;28;20221;-79
2022/05/14 07:33:58;;;;;;;1.77;1.30;;;25.80;42.80;;;-142.21;60.60;112049.66;5051613;28;20212;-80
2022/05/14 07:36:29;;;;;;;2.87;1.57;;;25.40;43.00;;;-142.21;56.29;112049.66;5051229;28;20293;-79
2022/05/14 07:39:02;;;;;;;4.20;2.00;;;25.20;41.70;;;-142.21;61.54;112049.66;5052157;28;20198;-79
2022/05/14 07:41:32;;;;;;;1.43;1.33;;;24.50;43.50;;;-142.21;60.21;112049.66;5031799;28;20197;-79
2022/05/14 07:44:03;;;;;;;3.47;1.40;;;24.20;44.30;;;-142.21;58.60;112049.66;5048900;28;20249;-80
2022/05/14 07:46:37;;;;;;;2.53;1.40;;;23.90;44.40;;;-142.21;67.50;112049.66;5051460;28;20659;-80
2022/05/14 07:49:10;;;;;;;3.43;1.40;;;23.60;45.70;;;-142.21;67.74;112049.66;5051895;28;20190;-80
2022/05/14 07:51:40;;;;;;;2.40;1.67;;;23.60;46.80;;;-142.21;61.00;112049.66;5050825;28;20674;-80
2022/05/14 07:54:08;;;;;;;4.87;1.53;;;23.70;46.80;;;-142.21;59.29;112049.66;5036237;28;20275;-79
2022/05/14 07:56:37;;;;;;;2.33;1.43;;;24.10;45.70;;;-142.21;52.41;112049.66;5031082;28;20675;-81
2022/05/14 07:59:05;;;;;;;2.17;1.30;;;24.60;44.20;;;-142.21;56.06;112049.66;5047846;28;20204;-79
2022/05/14 08:01:32;;;;;;;3.13;1.83;;;24.80;46.50;;;-142.21;53.03;112049.66;5050322;28;20228;-79
2022/05/14 08:03:59;;;;;;;3.00;1.30;;;25.30;45.60;;;-142.21;49.02;112049.66;5049944;28;20235;-80
2022/05/14 08:06:27;;;;;;;2.90;1.30;;;25.60;44.30;;;-142.21;49.47;112049.66;5050412;28;20211;-80
2022/05/14 08:08:56;;;;;;;3.23;1.23;;;25.40;44.70;;;-142.21;45.87;112049.66;5051679;28;20733;-79
2022/05/14 08:11:24;;;;;;;2.93;1.53;;;25.20;43.50;;;-142.21;46.63;112049.66;5048679;28;20229;-80
2022/05/14 08:13:53;;;;;;;4.20;1.23;;;24.90;43.70;;;-142.21;51.93;112049.66;5049955;28;20600;-79
2022/05/14 08:16:21;;;;;;;2.13;1.57;;;24.70;45.40;;;-142.21;51.68;112049.66;5050614;28;20623;-79
2022/05/14 08:18:48;;;;;;;1.87;1.77;;;24.50;45.20;;;-142.21;50.33;112049.66;5050491;28;20255;-80
2022/05/14 08:26:50;;;;;;;2.23;1.40;;;24.10;45.50;;;-142.21;49.43;112049.66;5035543;28;20270;-79
2022/05/14 08:29:17;;;;;;;2.17;1.47;;;24.00;44.80;;;-142.21;51.52;112049.66;5070118;28;20207;-80
2022/05/14 08:31:44;;;;;;;2.20;1.07;;;24.00;45.90;;;-142.21;49.59;112049.66;5054639;28;20308;-80
2022/05/14 08:34:12;;;;;;;2.17;1.50;;;23.80;44.80;;;-142.21;47.59;112049.66;5052823;28;20925;-79
2022/05/14 08:36:39;;;;;;;2.03;1.30;;;23.90;45.00;;;-142.21;45.14;112049.66;5053151;28;20207;-80
2022/05/14 08:39:08;;;;;;;1.60;1.50;;;24.00;45.40;;;-142.21;40.36;112049.66;5051237;28;20669;-78
2022/05/14 08:41:40;;;;;;;2.70;1.53;;;24.20;43.80;;;-142.21;41.12;112049.66;5054475;28;20245;-79
2022/05/14 08:44:13;;;;;;;1.83;1.47;;;24.30;44.00;;;-142.21;40.30;112049.66;5054268;28;20241;-79
2022/05/14 08:46:42;;;;;;;2.27;1.43;;;24.40;44.40;;;-142.21;41.03;112049.66;5034097;28;20235;-80
2022/05/14 08:49:17;;;;;;;2.33;1.53;;;24.60;45.90;;;-142.21;35.70;112049.66;5053162;28;20207;-79
2022/05/14 08:51:50;;;;;;;1.40;1.20;;;24.70;43.80;;;-142.21;37.58;112049.66;5055194;28;20215;-80
2022/05/14 08:54:20;;;;;;;1.80;1.37;;;25.10;45.70;;;-142.21;32.85;112049.66;5053516;28;20200;-80
2022/05/14 08:56:59;;;;;;;2.73;1.50;;;25.80;43.60;;;-142.21;33.70;112049.66;5054096;28;20292;-78
2022/05/14 08:59:52;;;;;;;3.43;1.50;;;26.20;43.30;;;-142.21;34.50;112049.66;5053506;28;20191;-80
2022/05/14 09:02:23;;;;;;;3.87;1.33;;;26.60;41.40;;;-142.21;37.46;112049.66;5053342;28;20205;-81
2022/05/14 09:04:57;;;;;;;2.67;1.60;;;27.00;41.10;;;-142.21;37.74;112049.66;5035410;28;20291;-80
2022/05/14 09:07:24;;;;;;;2.23;1.40;;;27.40;41.40;;;-142.21;37.17;112049.66;5037723;28;20221;-79
2022/05/14 09:09:56;;;;;;;3.43;1.30;;;27.60;39.30;;;-142.21;36.96;112049.66;5054814;28;20288;-80
2022/05/14 09:12:29;;;;;;;2.97;1.40;;;27.40;38.50;;;-142.21;39.71;112049.66;5053803;28;20256;-77
2022/05/14 09:15:00;;;;;;;1.70;1.43;;;27.10;40.00;;;-142.21;41.09;112049.66;5054948;28;20196;-77
2022/05/14 09:17:31;;;;;;;1.73;1.40;;;27.00;41.00;;;-142.21;42.66;112049.66;5053717;28;20218;-75
2022/05/14 09:20:01;;;;;;;2.00;1.40;;;26.90;42.90;;;-142.21;38.99;112049.66;5054791;28;20336;-79
2022/05/14 09:22:35;;;;;;;3.90;1.80;;;26.70;40.80;;;-142.21;41.14;112049.66;5053753;28;20202;-78
2022/05/14 09:25:19;;;;;;;1.90;1.47;;;26.70;42.00;;;-142.21;40.56;112049.66;5042601;28;20226;-78
2022/05/14 09:27:52;;;;;;;1.30;1.20;;;26.70;41.60;;;-142.21;41.10;112049.66;5039375;28;20284;-77
2022/05/14 09:30:38;;;;;;;3.93;1.47;;;26.60;42.10;;;-142.21;38.73;112049.66;5053749;28;20674;-79
2022/05/14 09:33:08;;;;;;;2.90;1.40;;;26.70;40.50;;;-142.21;39.25;112049.66;5052918;28;20297;-82
2022/05/14 09:35:37;;;;;;;2.60;1.47;;;26.70;40.50;;;-142.21;40.04;112049.66;5053976;28;20186;-80
2022/05/14 09:38:12;;;;;;;4.00;1.70;;;26.70;41.00;;;-142.21;40.73;112049.66;5053506;28;20232;-78
2022/05/14 09:40:41;;;;;;;1.57;1.47;;;26.70;40.70;;;-142.21;40.89;112049.66;5053334;28;20189;-77
2022/05/14 09:43:27;;;;;;;2.40;1.50;;;26.60;41.20;;;-142.21;39.12;112049.66;5054438;28;20256;-80
2022/05/14 09:46:03;;;;;;;2.23;1.40;;;26.50;40.40;;;-142.21;38.04;112049.66;5053607;28;20320;-80
2022/05/14 09:48:38;;;;;;;3.33;1.77;;;26.70;39.90;;;-142.21;37.26;112049.66;5053670;28;20236;-78
2022/05/14 09:51:09;;;;;;;2.33;1.30;;;26.60;39.30;;;-142.21;37.39;112049.66;5047977;28;20206;-80
2022/05/14 09:53:42;;;;;;;3.93;1.90;;;26.50;38.90;;;-142.21;38.37;112049.66;5053154;28;20616;-78
2022/05/14 09:56:43;;;;;;;1.70;1.20;;;26.60;40.50;;;-142.21;36.67;112049.66;5053778;28;20718;-80
2022/05/14 09:59:38;;;;;;;2.67;1.50;;;26.70;38.40;;;-142.21;35.68;112049.66;5049718;28;20681;-81
2022/05/14 10:02:16;;;;;;;3.47;1.50;;;26.70;37.60;;;-142.21;36.98;112049.66;5056889;28;20661;-81
2022/05/14 10:05:02;;;;;;;3.97;1.40;;;26.70;39.10;;;-142.21;35.74;112049.66;5053419;28;20321;-80
2022/05/14 10:07:36;;;;;;;2.70;1.43;;;26.80;39.30;;;-142.21;37.05;112049.66;5052446;28;20650;-80
2022/05/14 10:10:19;;;;;;;2.07;1.30;;;26.60;39.10;;;-142.21;37.35;112049.66;5053236;28;20193;-80
2022/05/14 10:13:02;;;;;;;3.33;1.60;;;26.80;39.70;;;-142.21;35.61;112049.66;5053199;28;20220;-80
2022/05/14 10:15:43;;;;;;;2.63;1.83;;;26.90;38.80;;;-142.21;34.52;112049.66;5042708;28;20229;-78
2022/05/14 10:18:37;;;;;;;2.63;1.40;;;26.90;37.60;;;-142.21;35.50;112049.66;5052050;28;20225;-81
2022/05/14 10:21:13;;;;;;;3.63;1.60;;;26.90;37.80;;;-142.21;35.86;112049.66;5066913;28;20194;-77
2022/05/14 10:26:59;;;;;;;1.97;1.20;;;27.00;36.40;;;-142.21;36.60;112049.66;5039369;28;20260;-81
2022/05/14 10:29:47;;;;;;;2.20;1.40;;;27.00;39.30;;;-142.21;36.24;112049.66;5039650;28;20202;-79
2022/05/14 10:32:17;;;;;;;4.43;2.10;;;27.00;38.50;;;-142.21;36.33;112049.66;5033664;28;20260;-79
2022/05/14 10:34:55;;;;;;;4.77;1.70;;;27.00;40.30;;;-142.21;35.89;112049.66;5052241;28;20198;-76